Allenwood, New York
Current Conditions -  °F | °C
As of 12:51 AM on Thursday 29 Jan 2015 (Local Time) from KLGA Reporting Station
Clear Clear  
Wind Chill: -9°   Ceiling: Unl
Heat Index: -4°   Visibility: 10mi
Dew Point: -15°   Wind: 8mph
Humidity: 44%   Direction: 340°NNW
Pressure: 30.29"   Gusts: NA
Location:  40.786°N, 73.7291°W
Report Text: KLGA 290551Z 34007KT 10SM CLR M04/M15 A3029 RMK AO2 SLP255 4/006 T10441150 11006 21044 51012
Loading
Personal Weather Stations






























Interactive Weather Map New forecast layout! Learn more

10-Day Weather Forecast

Advertisements
Track Severe Weather on mobile